Time;durP1;ratioP1;P1;durP2;ratioP2;P2;SDS_P1;SDS_P2;PMS_P1;PMS_P2;Temp;Humidity;BMP_temperature;BMP_pressure;BME280_temperature;BME280_humidity;BME280_pressure;Samples;Min_cycle;Max_cycle;Signal;HPM_P1;HPM_P2
2021/05/06 00:00:27;;;;;;;9.80;3.85;;;5.10;98.30;;;;;;4191130;28;20241;-82
2021/05/06 00:02:36;;;;;;;20.17;4.45;;;5.10;98.30;;;;;;4186151;28;20233;-83
2021/05/06 00:05:04;;;;;;;11.63;4.10;;;5.10;98.30;;;;;;4188879;28;20236;-83
2021/05/06 00:31:19;;;;;;;11.95;4.30;;;5.20;98.30;;;;;;4190746;28;20899;-82
2021/05/06 00:33:21;;;;;;;8.63;4.30;;;5.10;98.30;;;;;;4184783;28;20225;-83
2021/05/06 00:35:25;;;;;;;10.98;4.20;;;5.10;98.30;;;;;;4188027;28;20228;-82
2021/05/06 00:37:27;;;;;;;13.10;4.70;;;5.10;98.30;;;;;;4190107;28;20225;-81
2021/05/06 00:39:32;;;;;;;11.25;4.75;;;5.10;98.30;;;;;;4186175;28;20709;-81
2021/05/06 00:41:45;;;;;;;11.52;4.35;;;5.10;98.30;;;;;;4180978;28;20222;-82
2021/05/06 00:44:22;;;;;;;15.32;4.35;;;5.10;98.30;;;;;;4185979;28;20233;-83
2021/05/06 00:46:41;;;;;;;12.30;3.75;;;5.10;98.30;;;;;;4189148;28;20694;-82
2021/05/06 00:58:19;;;;;;;9.30;4.00;;;5.00;98.30;;;;;;4159894;28;20229;-83
2021/05/06 01:02:55;;;;;;;12.07;4.55;;;5.00;98.30;;;;;;4164800;28;20275;-82
2021/05/06 01:05:02;;;;;;;8.30;3.78;;;4.90;98.30;;;;;;4190830;28;20237;-81
2021/05/06 01:07:26;;;;;;;11.48;4.50;;;4.90;98.30;;;;;;4187009;28;20239;-82
2021/05/06 01:09:34;;;;;;;14.27;4.95;;;4.90;98.30;;;;;;4181714;28;20230;-82
2021/05/06 01:11:40;;;;;;;11.65;5.22;;;4.90;98.30;;;;;;4186069;28;20278;-83
2021/05/06 01:13:44;;;;;;;11.70;4.57;;;4.90;98.30;;;;;;4186541;28;20225;-79
2021/05/06 01:15:46;;;;;;;11.43;4.87;;;4.90;98.30;;;;;;4185819;28;20229;-82
2021/05/06 01:17:48;;;;;;;9.23;4.57;;;4.90;98.30;;;;;;4188482;28;20488;-82
2021/05/06 01:19:50;;;;;;;10.25;3.67;;;4.90;98.30;;;;;;4186818;28;20233;-81
2021/05/06 01:21:54;;;;;;;9.40;4.00;;;4.90;98.30;;;;;;4190144;28;20221;-81
2021/05/06 01:23:57;;;;;;;9.90;4.20;;;4.80;98.30;;;;;;4187439;28;20229;-82
2021/05/06 01:26:01;;;;;;;12.45;4.68;;;4.80;98.30;;;;;;4187053;28;20229;-83
2021/05/06 01:28:06;;;;;;;9.07;4.03;;;4.80;98.30;;;;;;4186132;28;20291;-82
2021/05/06 01:30:19;;;;;;;12.90;5.05;;;4.80;98.30;;;;;;4187018;28;20311;-82
2021/05/06 01:32:22;;;;;;;8.13;4.10;;;4.70;98.30;;;;;;4186443;28;20308;-82
2021/05/06 01:34:24;;;;;;;12.35;5.38;;;4.70;98.30;;;;;;4185519;28;20496;-82
2021/05/06 01:36:32;;;;;;;10.27;4.60;;;4.70;98.30;;;;;;4184401;28;20233;-81
2021/05/06 01:38:50;;;;;;;11.68;3.95;;;4.60;98.30;;;;;;4187110;28;20689;-82
2021/05/06 01:41:05;;;;;;;12.18;4.70;;;4.70;98.30;;;;;;4185138;28;20236;-80
2021/05/06 01:43:12;;;;;;;13.50;4.90;;;4.60;98.30;;;;;;4189291;28;20300;-80
2021/05/06 01:47:36;;;;;;;13.00;4.70;;;4.60;98.30;;;;;;4188790;28;20232;-83
2021/05/06 01:59:02;;;;;;;11.70;4.10;;;4.60;98.30;;;;;;4183705;28;20235;-81
2021/05/06 02:01:05;;;;;;;11.73;4.80;;;4.60;98.30;;;;;;4187612;28;20233;-82
2021/05/06 02:03:07;;;;;;;12.15;4.55;;;4.60;98.30;;;;;;4182708;28;20239;-81
2021/05/06 02:05:10;;;;;;;9.88;4.40;;;4.60;98.30;;;;;;4182204;28;20255;-79
2021/05/06 02:07:12;;;;;;;10.88;4.00;;;4.60;98.30;;;;;;4181857;28;20233;-81
2021/05/06 02:09:15;;;;;;;10.10;3.70;;;4.60;98.30;;;;;;4181443;28;20221;-80
2021/05/06 02:11:18;;;;;;;8.73;3.97;;;4.60;98.30;;;;;;4179997;28;20236;-81
2021/05/06 02:13:19;;;;;;;7.78;3.90;;;4.60;98.30;;;;;;4178674;28;20767;-81
2021/05/06 02:15:24;;;;;;;15.00;4.63;;;4.60;98.30;;;;;;4174932;28;20229;-80
2021/05/06 02:17:26;;;;;;;15.85;7.53;;;4.60;98.30;;;;;;4184296;28;20255;-82
2021/05/06 02:19:31;;;;;;;8.00;3.90;;;4.60;98.30;;;;;;4186403;28;20257;-81
2021/05/06 02:21:33;;;;;;;9.57;3.65;;;4.70;98.30;;;;;;4180479;28;20240;-82
2021/05/06 02:23:37;;;;;;;12.07;3.80;;;4.60;98.30;;;;;;4179946;28;20239;-81
2021/05/06 02:25:39;;;;;;;16.27;5.32;;;4.60;98.30;;;;;;4181736;28;20228;-81
2021/05/06 02:27:42;;;;;;;15.05;5.95;;;4.50;98.30;;;;;;4186541;28;20898;-78
2021/05/06 02:29:44;;;;;;;13.68;5.40;;;4.50;98.30;;;;;;4186004;28;20237;-82
2021/05/06 02:31:45;;;;;;;18.30;5.10;;;4.50;98.30;;;;;;4188791;28;20519;-82
2021/05/06 02:33:48;;;;;;;10.05;4.30;;;4.50;98.30;;;;;;4189735;28;20734;-83
2021/05/06 02:35:50;;;;;;;9.95;4.72;;;4.50;98.30;;;;;;4184998;28;20241;-82
2021/05/06 02:37:52;;;;;;;9.90;4.20;;;4.50;98.30;;;;;;4188914;28;20234;-81
2021/05/06 02:39:55;;;;;;;7.60;3.90;;;4.50;98.30;;;;;;4187069;28;20218;-81
2021/05/06 02:41:57;;;;;;;9.43;4.03;;;4.50;98.30;;;;;;4184624;28;20228;-82
2021/05/06 02:43:59;;;;;;;8.88;4.25;;;4.50;98.30;;;;;;4186139;28;20338;-82
2021/05/06 02:46:01;;;;;;;14.88;4.35;;;4.50;98.30;;;;;;4185037;28;20909;-83
2021/05/06 02:48:04;;;;;;;12.63;4.28;;;4.50;98.30;;;;;;4183401;28;20232;-81
2021/05/06 02:50:10;;;;;;;12.27;4.03;;;4.50;98.30;;;;;;4195384;28;20232;-81
2021/05/06 02:52:16;;;;;;;9.27;4.07;;;4.50;98.30;;;;;;4195021;28;20225;-80
2021/05/06 02:54:18;;;;;;;8.88;4.18;;;4.60;98.30;;;;;;4196543;28;20235;-81
2021/05/06 02:56:27;;;;;;;9.02;4.35;;;4.60;98.30;;;;;;4196259;28;20286;-81
2021/05/06 02:58:45;;;;;;;9.40;4.80;;;4.50;98.30;;;;;;4195126;28;20235;-80
2021/05/06 03:03:08;;;;;;;9.98;4.40;;;4.50;98.30;;;;;;4190776;28;20233;-79
2021/05/06 03:05:11;;;;;;;11.57;5.53;;;4.50;98.30;;;;;;4189605;28;20225;-81
2021/05/06 03:07:18;;;;;;;11.23;4.30;;;4.40;98.30;;;;;;4184313;28;20239;-82
2021/05/06 03:09:31;;;;;;;10.30;4.40;;;4.50;98.30;;;;;;4187652;28;20307;-82
2021/05/06 03:11:41;;;;;;;10.30;4.93;;;4.40;98.30;;;;;;4189627;28;20718;-82
2021/05/06 03:14:09;;;;;;;15.10;4.80;;;4.40;98.30;;;;;;4186856;28;20229;-82
2021/05/06 03:21:25;;;;;;;11.13;4.07;;;4.30;98.30;;;;;;4187313;28;20224;-83
2021/05/06 03:23:27;;;;;;;11.45;4.10;;;4.30;98.30;;;;;;4186134;28;20225;-83
2021/05/06 03:25:30;;;;;;;12.75;4.55;;;4.30;98.30;;;;;;4182955;28;20234;-81
2021/05/06 03:27:33;;;;;;;15.50;4.32;;;4.30;98.30;;;;;;4185752;28;20286;-82
2021/05/06 03:29:38;;;;;;;8.73;4.05;;;4.30;98.30;;;;;;4187531;28;20225;-81
2021/05/06 03:41:42;;;;;;;14.80;5.07;;;4.20;98.30;;;;;;4179964;28;20716;-80
2021/05/06 03:43:53;;;;;;;11.73;4.25;;;4.20;98.30;;;;;;4179500;28;20238;-80
2021/05/06 04:16:51;;;;;;;10.40;3.70;;;4.20;98.30;;;;;;4178737;28;20247;-81
2021/05/06 04:18:55;;;;;;;13.68;4.25;;;4.20;98.30;;;;;;4185148;28;20228;-81
2021/05/06 04:25:54;;;;;;;8.80;3.55;;;4.30;98.30;;;;;;4188241;28;20243;-80
2021/05/06 04:28:11;;;;;;;10.95;4.00;;;4.30;98.30;;;;;;4179961;28;20237;-80
2021/05/06 04:30:33;;;;;;;10.25;4.13;;;4.40;98.30;;;;;;4181705;28;20237;-80
2021/05/06 04:37:15;;;;;;;14.27;4.50;;;4.50;98.30;;;;;;4183104;28;20229;-82
2021/05/06 04:39:26;;;;;;;13.75;4.10;;;4.50;98.30;;;;;;4189068;28;20703;-81
2021/05/06 04:41:38;;;;;;;6.95;3.60;;;4.60;98.30;;;;;;4189337;28;20728;-80
2021/05/06 04:44:27;;;;;;;10.50;4.47;;;4.60;98.30;;;;;;4191588;28;20229;-81
2021/05/06 04:46:45;;;;;;;9.43;3.30;;;4.60;98.30;;;;;;4188825;28;20764;-81
2021/05/06 04:53:49;;;;;;;8.40;3.40;;;4.50;98.30;;;;;;4185916;28;20238;-80
2021/05/06 04:55:53;;;;;;;9.43;3.75;;;4.50;98.30;;;;;;4190462;28;20225;-78
2021/05/06 04:58:07;;;;;;;7.85;3.55;;;4.50;98.30;;;;;;4185871;28;20233;-82
2021/05/06 05:05:05;;;;;;;7.50;4.20;;;4.60;98.30;;;;;;4175119;28;20237;-79
2021/05/06 05:07:12;;;;;;;8.80;3.63;;;4.60;98.30;;;;;;4184627;28;20620;-79
2021/05/06 05:09:32;;;;;;;8.18;4.03;;;4.60;98.30;;;;;;4182827;28;20217;-78
2021/05/06 05:11:46;;;;;;;9.27;3.65;;;4.60;98.30;;;;;;4183018;28;20228;-78
2021/05/06 05:18:50;;;;;;;12.02;4.22;;;4.70;98.30;;;;;;4182143;28;20224;-80
2021/05/06 05:21:15;;;;;;;8.30;3.70;;;4.80;98.30;;;;;;4183451;28;20263;-78
2021/05/06 05:23:26;;;;;;;9.80;3.50;;;4.80;98.30;;;;;;4185252;28;20237;-80
2021/05/06 05:25:33;;;;;;;11.05;4.07;;;4.80;98.30;;;;;;4181512;28;20225;-79
2021/05/06 05:27:34;;;;;;;8.00;3.55;;;5.00;98.30;;;;;;4188431;28;20739;-80
2021/05/06 05:29:36;;;;;;;15.02;3.97;;;5.00;98.30;;;;;;4185459;28;20746;-80
2021/05/06 05:31:38;;;;;;;7.05;4.28;;;4.90;98.30;;;;;;4184201;28;20231;-79
2021/05/06 05:33:46;;;;;;;19.35;6.25;;;5.00;98.30;;;;;;4185109;28;20699;-79
2021/05/06 05:35:55;;;;;;;9.05;3.17;;;5.00;98.30;;;;;;4174500;28;20308;-78
2021/05/06 05:38:05;;;;;;;6.93;3.20;;;5.10;98.30;;;;;;4185754;28;20236;-79
2021/05/06 05:40:15;;;;;;;8.00;4.10;;;5.10;98.30;;;;;;4176007;28;20479;-80
2021/05/06 05:42:26;;;;;;;8.20;3.33;;;5.10;98.30;;;;;;4182874;28;20507;-80
2021/05/06 05:47:12;;;;;;;10.73;4.00;;;5.10;98.30;;;;;;4161072;28;20320;-81
2021/05/06 05:56:25;;;;;;;10.90;5.27;;;5.40;98.30;;;;;;4167177;28;20489;-81
2021/05/06 05:58:28;;;;;;;10.10;4.67;;;5.50;98.30;;;;;;4176350;28;21026;-80
2021/05/06 06:00:37;;;;;;;11.10;4.47;;;5.60;98.30;;;;;;4183754;28;20490;-80
2021/05/06 06:02:41;;;;;;;6.43;3.00;;;5.60;98.30;;;;;;4189473;28;20486;-80
2021/05/06 06:04:44;;;;;;;7.90;3.57;;;5.60;98.30;;;;;;4187624;28;20486;-80
2021/05/06 06:06:47;;;;;;;9.07;3.60;;;5.60;98.30;;;;;;4186883;28;20495;-81
2021/05/06 06:08:51;;;;;;;8.53;3.97;;;5.60;98.30;;;;;;4188431;28;20543;-82
2021/05/06 06:10:53;;;;;;;10.47;3.40;;;5.70;98.30;;;;;;4190145;28;20892;-83
2021/05/06 06:13:00;;;;;;;9.67;4.33;;;5.70;98.30;;;;;;4188996;28;20503;-82
2021/05/06 06:15:10;;;;;;;6.77;3.10;;;5.90;98.30;;;;;;4188480;28;20595;-82
2021/05/06 06:17:14;;;;;;;7.83;3.13;;;5.90;98.30;;;;;;4188452;28;20492;-82
2021/05/06 06:19:24;;;;;;;5.03;3.50;;;6.00;98.30;;;;;;4188169;28;20889;-81
2021/05/06 06:21:42;;;;;;;7.93;3.87;;;6.00;98.30;;;;;;4187523;28;20490;-83
2021/05/06 06:23:55;;;;;;;4.97;3.23;;;6.10;98.30;;;;;;4184986;28;20463;-80
2021/05/06 06:25:59;;;;;;;8.57;3.67;;;6.10;98.30;;;;;;4185884;28;20528;-82
2021/05/06 06:28:12;;;;;;;6.00;3.33;;;6.10;98.30;;;;;;4185600;28;20584;-83
2021/05/06 06:30:22;;;;;;;6.63;3.03;;;6.20;98.30;;;;;;4187700;28;20518;-79
2021/05/06 06:32:27;;;;;;;7.33;3.40;;;6.20;98.30;;;;;;4187743;28;20497;-80
2021/05/06 06:34:34;;;;;;;8.33;3.53;;;6.20;98.30;;;;;;4183593;28;20508;-81
2021/05/06 06:36:38;;;;;;;14.33;3.07;;;6.20;98.30;;;;;;4186717;28;21348;-80
2021/05/06 06:38:41;;;;;;;4.97;3.30;;;6.20;98.30;;;;;;4180045;28;20488;-80
2021/05/06 06:40:43;;;;;;;11.17;4.00;;;6.10;98.30;;;;;;4181272;28;20537;-80
2021/05/06 06:42:45;;;;;;;12.80;5.20;;;6.00;98.30;;;;;;4176912;28;21021;-81
2021/05/06 06:44:49;;;;;;;5.50;3.67;;;6.20;98.30;;;;;;4182532;28;20487;-80
2021/05/06 06:47:04;;;;;;;6.43;3.50;;;6.20;98.30;;;;;;4186758;28;20478;-82
2021/05/06 06:49:12;;;;;;;9.37;3.53;;;6.30;98.30;;;;;;4185144;28;20617;-81
2021/05/06 06:51:15;;;;;;;8.60;4.77;;;6.50;98.30;;;;;;4181832;28;20466;-80
2021/05/06 06:53:17;;;;;;;10.77;3.50;;;6.70;98.30;;;;;;4187350;28;20533;-80
2021/05/06 06:55:20;;;;;;;7.17;3.13;;;6.80;98.30;;;;;;4188259;28;21090;-78
2021/05/06 06:57:22;;;;;;;7.03;3.20;;;6.90;98.30;;;;;;4183762;28;21196;-79
2021/05/06 06:59:26;;;;;;;7.80;2.97;;;7.10;98.30;;;;;;4188810;28;20469;-81
2021/05/06 07:01:29;;;;;;;9.57;3.47;;;7.10;98.30;;;;;;4186943;28;20565;-82
2021/05/06 07:03:32;;;;;;;10.43;3.50;;;7.10;98.30;;;;;;4189125;28;21043;-83
2021/05/06 07:05:36;;;;;;;8.90;4.10;;;7.10;98.30;;;;;;4187632;28;20491;-82
2021/05/06 07:07:38;;;;;;;11.40;3.03;;;7.00;98.30;;;;;;4189786;28;20491;-80
2021/05/06 07:09:41;;;;;;;4.97;2.73;;;6.90;98.30;;;;;;4190996;28;20486;-81
2021/05/06 07:11:43;;;;;;;4.30;2.70;;;7.00;98.30;;;;;;4191977;28;20487;-81
2021/05/06 07:13:45;;;;;;;13.87;3.13;;;7.10;98.30;;;;;;4189406;28;20494;-81
2021/05/06 07:15:48;;;;;;;7.63;3.03;;;7.20;98.30;;;;;;4192770;28;20491;-82
2021/05/06 07:17:52;;;;;;;4.83;2.63;;;7.30;98.30;;;;;;4190320;28;20525;-81
2021/05/06 07:19:57;;;;;;;8.37;3.30;;;7.30;98.30;;;;;;4194720;28;20470;-80
2021/05/06 07:22:07;;;;;;;7.07;3.30;;;7.30;98.30;;;;;;4185543;28;20496;-80
2021/05/06 07:24:13;;;;;;;7.63;3.20;;;7.50;98.30;;;;;;4190854;28;20491;-80
2021/05/06 07:26:31;;;;;;;3.23;2.83;;;7.60;98.30;;;;;;4191863;28;20503;-80
2021/05/06 07:28:37;;;;;;;7.80;3.47;;;7.60;98.30;;;;;;4196879;28;20466;-80
2021/05/06 07:30:42;;;;;;;5.97;2.67;;;7.70;98.30;;;;;;4194536;28;20525;-80
2021/05/06 07:32:46;;;;;;;9.97;3.30;;;7.70;98.30;;;;;;4188146;28;20486;-80
2021/05/06 07:34:52;;;;;;;5.60;2.67;;;7.70;98.30;;;;;;4191794;28;20495;-80
2021/05/06 07:36:58;;;;;;;11.60;3.53;;;7.80;98.30;;;;;;4189631;28;20483;-80
2021/05/06 07:39:08;;;;;;;10.67;3.10;;;7.80;98.30;;;;;;4187644;28;20571;-80
2021/05/06 07:41:14;;;;;;;7.30;3.00;;;8.10;98.30;;;;;;4187546;28;20479;-80
2021/05/06 07:43:19;;;;;;;9.17;3.47;;;8.30;98.30;;;;;;4185553;28;20541;-80
2021/05/06 07:45:25;;;;;;;9.27;3.70;;;8.30;98.30;;;;;;4191701;28;20464;-80
2021/05/06 07:47:29;;;;;;;7.47;3.13;;;8.40;98.30;;;;;;4190046;28;20484;-80
2021/05/06 07:49:35;;;;;;;6.83;3.17;;;8.40;98.30;;;;;;4192804;28;20486;-80
2021/05/06 07:51:39;;;;;;;12.33;3.93;;;8.20;98.30;;;;;;4192424;28;20990;-80
2021/05/06 07:53:48;;;;;;;5.27;3.00;;;8.20;98.30;;;;;;4191734;28;20494;-80
2021/05/06 07:55:55;;;;;;;8.90;3.80;;;8.20;98.30;;;;;;4191738;28;20483;-82
2021/05/06 07:58:01;;;;;;;6.37;3.37;;;8.20;98.30;;;;;;4192701;28;20486;-82
2021/05/06 08:00:05;;;;;;;9.43;3.50;;;8.30;98.30;;;;;;4189053;28;20506;-81
2021/05/06 08:02:17;;;;;;;5.40;2.40;;;8.30;98.30;;;;;;4190661;28;20532;-81
2021/05/06 08:04:21;;;;;;;9.00;3.47;;;8.20;98.30;;;;;;4195939;28;20495;-81
2021/05/06 08:06:23;;;;;;;4.07;2.73;;;8.10;98.30;;;;;;4193495;28;20492;-81
2021/05/06 08:08:52;;;;;;;10.67;3.03;;;8.10;98.30;;;;;;4197090;28;20791;-81
2021/05/06 08:10:58;;;;;;;9.20;3.20;;;8.30;98.30;;;;;;4191918;28;20480;-82
2021/05/06 08:13:04;;;;;;;7.93;3.30;;;8.20;98.30;;;;;;4186872;28;20538;-81
2021/05/06 08:15:08;;;;;;;8.70;5.60;;;8.40;98.30;;;;;;4193903;28;20552;-81
2021/05/06 08:17:10;;;;;;;14.23;3.87;;;8.40;98.30;;;;;;4191390;28;20466;-81
2021/05/06 08:19:13;;;;;;;7.10;3.57;;;8.40;98.30;;;;;;4192589;28;20493;-81
2021/05/06 08:21:15;;;;;;;5.33;2.63;;;8.50;98.30;;;;;;4191602;28;20518;-81
2021/05/06 08:23:18;;;;;;;8.60;3.33;;;8.60;98.30;;;;;;4182413;28;20478;-81
2021/05/06 08:25:23;;;;;;;8.67;3.60;;;8.80;98.30;;;;;;4180945;28;20577;-82
2021/05/06 08:27:32;;;;;;;5.20;2.63;;;8.80;98.30;;;;;;4189002;28;20491;-81
2021/05/06 08:29:35;;;;;;;8.57;2.97;;;9.00;98.30;;;;;;4186573;28;20571;-81
2021/05/06 08:31:38;;;;;;;9.90;3.50;;;9.00;98.00;;;;;;4187442;28;20480;-81
2021/05/06 08:33:40;;;;;;;5.93;2.90;;;9.00;98.30;;;;;;4189088;28;20483;-81
2021/05/06 08:35:43;;;;;;;5.40;2.43;;;9.20;98.30;;;;;;4187212;28;20489;-82
2021/05/06 08:37:45;;;;;;;5.73;3.10;;;9.20;97.00;;;;;;4187600;28;20583;-81
2021/05/06 08:39:49;;;;;;;5.20;2.90;;;9.20;97.30;;;;;;4188556;28;20579;-81
2021/05/06 08:41:51;;;;;;;10.03;2.93;;;9.20;97.40;;;;;;4193155;28;20490;-83
2021/05/06 08:43:57;;;;;;;8.37;3.10;;;9.00;96.30;;;;;;4188225;28;20491;-83
2021/05/06 08:45:59;;;;;;;6.33;3.10;;;9.00;97.10;;;;;;4188215;28;20495;-83
2021/05/06 08:48:02;;;;;;;5.20;2.40;;;9.30;95.80;;;;;;4184218;28;20500;-83
2021/05/06 08:50:05;;;;;;;5.30;2.83;;;9.40;95.60;;;;;;4193161;28;20486;-82
2021/05/06 08:52:08;;;;;;;7.63;3.03;;;9.40;94.80;;;;;;4171855;28;20953;-82
2021/05/06 08:54:10;;;;;;;7.83;3.10;;;9.50;93.60;;;;;;4194111;28;20486;-81
2021/05/06 08:56:12;;;;;;;6.77;3.50;;;9.70;94.00;;;;;;4190232;28;20494;-81
2021/05/06 08:58:14;;;;;;;8.00;2.80;;;9.70;92.90;;;;;;4187462;28;20465;-84
2021/05/06 09:00:18;;;;;;;11.13;4.40;;;9.50;92.60;;;;;;4190695;28;20495;-84
2021/05/06 09:02:21;;;;;;;4.10;2.07;;;9.60;93.80;;;;;;4193696;28;20498;-83
2021/05/06 09:04:25;;;;;;;5.50;3.23;;;9.60;92.40;;;;;;4190961;28;20855;-82
2021/05/06 09:06:27;;;;;;;7.07;3.10;;;9.50;92.80;;;;;;4186061;28;20497;-83
2021/05/06 09:08:35;;;;;;;3.90;2.60;;;9.70;92.20;;;;;;4187784;28;20548;-82
2021/05/06 09:10:40;;;;;;;8.67;2.10;;;9.80;92.00;;;;;;4181987;28;20499;-83
2021/05/06 09:12:42;;;;;;;7.10;3.53;;;9.60;93.00;;;;;;4189476;28;20550;-83
2021/05/06 09:14:45;;;;;;;13.07;2.90;;;9.40;92.90;;;;;;4192680;28;20482;-83
2021/05/06 09:16:48;;;;;;;5.57;2.87;;;9.40;94.40;;;;;;4198635;28;20483;-80
2021/05/06 09:18:50;;;;;;;4.83;3.23;;;9.30;94.10;;;;;;4192880;28;20963;-84
2021/05/06 09:20:52;;;;;;;4.53;3.00;;;9.40;94.20;;;;;;4191509;28;20459;-83
2021/05/06 09:22:56;;;;;;;5.00;3.80;;;9.60;93.70;;;;;;4189775;28;20486;-84
2021/05/06 09:25:19;;;;;;;9.50;2.67;;;9.80;95.00;;;;;;4188974;28;20495;-84
2021/05/06 09:27:28;;;;;;;7.10;2.97;;;10.00;93.20;;;;;;4189849;28;20577;-84
2021/05/06 09:29:36;;;;;;;7.63;2.77;;;10.20;93.20;;;;;;4193701;28;20859;-84
2021/05/06 09:31:40;;;;;;;6.27;2.60;;;10.40;91.50;;;;;;4188393;28;20541;-84
2021/05/06 09:33:49;;;;;;;9.00;2.83;;;10.30;91.20;;;;;;4192913;28;20476;-83
2021/05/06 09:35:51;;;;;;;5.43;3.40;;;10.20;90.50;;;;;;4188481;28;20488;-82
2021/05/06 09:37:53;;;;;;;8.87;3.07;;;9.80;89.90;;;;;;4189669;28;20492;-84
2021/05/06 09:39:59;;;;;;;4.53;2.40;;;10.00;91.00;;;;;;4191468;28;20486;-84
2021/05/06 09:42:06;;;;;;;7.73;3.03;;;10.30;89.60;;;;;;4186659;28;20509;-83
2021/05/06 09:44:10;;;;;;;3.93;2.47;;;10.60;88.80;;;;;;4194138;28;20514;-84
2021/05/06 09:46:31;;;;;;;10.63;2.80;;;10.70;86.80;;;;;;4189874;28;20538;-84
2021/05/06 09:48:33;;;;;;;3.83;2.47;;;10.90;86.50;;;;;;4190969;28;20902;-83
2021/05/06 09:50:36;;;;;;;3.80;2.73;;;11.10;85.90;;;;;;4188986;28;20885;-83
2021/05/06 09:52:56;;;;;;;3.60;2.37;;;11.10;85.40;;;;;;4187147;28;20579;-83
2021/05/06 09:54:58;;;;;;;7.53;5.17;;;11.40;85.50;;;;;;4192657;28;20483;-82
2021/05/06 09:57:03;;;;;;;7.43;4.00;;;11.60;85.00;;;;;;4190897;28;20574;-84
2021/05/06 09:59:05;;;;;;;8.40;3.83;;;11.70;84.60;;;;;;4190353;28;20909;-81
2021/05/06 10:01:11;;;;;;;4.03;2.90;;;11.20;84.30;;;;;;4191033;28;20510;-79
2021/05/06 10:03:16;;;;;;;6.23;2.80;;;11.10;85.40;;;;;;4191652;28;21140;-83
2021/05/06 10:05:18;;;;;;;5.53;2.53;;;11.00;85.40;;;;;;4191394;28;20525;-82
2021/05/06 10:07:22;;;;;;;5.80;2.60;;;11.20;85.80;;;;;;4190572;28;20494;-79
2021/05/06 10:09:26;;;;;;;4.60;2.63;;;11.40;85.20;;;;;;4190086;28;20483;-80
2021/05/06 10:11:28;;;;;;;4.37;2.53;;;11.80;83.50;;;;;;4190281;28;20490;-80
2021/05/06 10:13:30;;;;;;;3.83;2.70;;;11.90;81.30;;;;;;4188920;28;20837;-80
2021/05/06 10:15:34;;;;;;;9.07;3.10;;;11.30;80.90;;;;;;4188013;28;20512;-80
2021/05/06 10:17:37;;;;;;;6.07;2.93;;;10.80;84.20;;;;;;4189556;28;20515;-79
2021/05/06 10:19:40;;;;;;;13.57;6.97;;;10.80;84.50;;;;;;4190962;28;20506;-80
2021/05/06 10:21:43;;;;;;;11.03;5.50;;;10.90;86.90;;;;;;4190247;28;20495;-79
2021/05/06 10:23:47;;;;;;;4.50;3.10;;;10.60;88.60;;;;;;4187817;28;20512;-80
2021/05/06 10:25:53;;;;;;;6.37;2.97;;;10.70;89.40;;;;;;4186367;28;20495;-79
2021/05/06 10:27:56;;;;;;;7.47;3.30;;;10.50;89.30;;;;;;4187545;28;20496;-80
2021/05/06 10:29:59;;;;;;;3.67;2.70;;;10.30;90.00;;;;;;4187917;28;21071;-80
2021/05/06 10:32:01;;;;;;;6.67;2.30;;;10.50;91.00;;;;;;4190616;28;20493;-80
2021/05/06 10:34:03;;;;;;;3.10;2.17;;;10.80;90.50;;;;;;4189315;28;20486;-79
2021/05/06 10:36:07;;;;;;;5.53;2.30;;;11.10;90.80;;;;;;4188692;28;20566;-80
2021/05/06 10:38:09;;;;;;;5.23;2.20;;;11.30;90.40;;;;;;4188063;28;20493;-80
2021/05/06 10:40:29;;;;;;;5.20;2.60;;;11.50;90.80;;;;;;4189390;28;20497;-80
2021/05/06 10:42:37;;;;;;;5.80;2.57;;;11.70;89.90;;;;;;4189276;28;20497;-79
2021/05/06 10:44:45;;;;;;;6.50;2.70;;;11.70;88.50;;;;;;4185883;28;20964;-81
2021/05/06 10:46:58;;;;;;;6.23;2.47;;;11.50;89.00;;;;;;4185630;28;20494;-80
2021/05/06 10:49:02;;;;;;;4.30;2.80;;;11.50;89.30;;;;;;4185783;28;20519;-80
2021/05/06 10:51:40;;;;;;;4.23;2.43;;;11.60;89.40;;;;;;4189924;28;20585;-80
2021/05/06 10:53:48;;;;;;;5.30;2.60;;;12.10;86.60;;;;;;4189508;28;20873;-80
2021/05/06 10:55:53;;;;;;;5.53;3.63;;;12.10;84.10;;;;;;4191928;28;20522;-80
2021/05/06 10:57:55;;;;;;;8.13;2.90;;;12.50;85.40;;;;;;4187410;28;21011;-80
2021/05/06 10:59:57;;;;;;;4.37;2.37;;;12.90;84.30;;;;;;4189203;28;20823;-80
2021/05/06 11:01:59;;;;;;;8.93;3.10;;;12.90;83.20;;;;;;4186999;28;20500;-80
2021/05/06 11:04:10;;;;;;;4.30;3.03;;;12.90;83.70;;;;;;4188467;28;20502;-80
2021/05/06 11:06:52;;;;;;;6.10;2.80;;;13.50;83.80;;;;;;4230281;23;21324;-80
2021/05/06 11:08:53;;;;;;;5.53;2.70;;;14.30;83.10;;;;;;4171295;28;20500;-79
2021/05/06 11:11:16;;;;;;;6.27;3.10;;;13.60;81.70;;;;;;4174027;28;20502;-79
2021/05/06 11:13:19;;;;;;;4.50;2.70;;;12.50;85.40;;;;;;4170163;28;20854;-79
2021/05/06 11:15:24;;;;;;;5.50;2.60;;;12.50;86.80;;;;;;4175380;28;20480;-80
2021/05/06 11:17:40;;;;;;;4.57;2.97;;;12.40;88.90;;;;;;4173981;28;20976;-79
2021/05/06 11:19:42;;;;;;;5.53;2.40;;;11.80;94.10;;;;;;4172159;28;20519;-79
2021/05/06 11:21:45;;;;;;;4.23;2.50;;;10.90;98.20;;;;;;4168962;28;20535;-80
2021/05/06 11:23:51;;;;;;;8.37;2.23;;;9.90;98.30;;;;;;4169890;28;20493;-79
2021/05/06 11:26:03;;;;;;;8.93;2.93;;;9.40;98.30;;;;;;4175292;28;20992;-79
2021/05/06 11:28:27;;;;;;;4.60;2.70;;;8.30;98.30;;;;;;4170979;28;20507;-79
2021/05/06 11:30:36;;;;;;;3.80;2.70;;;7.80;98.30;;;;;;4168512;28;20492;-79
2021/05/06 11:32:37;;;;;;;12.77;3.57;;;7.40;98.30;;;;;;4170828;28;21004;-79
2021/05/06 11:34:42;;;;;;;6.20;3.17;;;7.30;98.30;;;;;;4172745;28;21104;-79
2021/05/06 11:36:44;;;;;;;8.53;3.80;;;7.40;98.30;;;;;;4172606;28;20549;-79
2021/05/06 11:38:52;;;;;;;5.80;2.70;;;7.60;98.30;;;;;;4169551;28;20491;-79
2021/05/06 11:40:58;;;;;;;8.30;3.40;;;8.40;98.30;;;;;;4171183;28;20550;-79
2021/05/06 11:43:00;;;;;;;4.73;3.00;;;8.90;98.30;;;;;;4176979;28;20508;-79
2021/05/06 11:45:15;;;;;;;4.60;3.03;;;9.40;98.30;;;;;;4170018;28;20842;-79
2021/05/06 11:47:26;;;;;;;7.33;3.67;;;10.20;98.30;;;;;;4171313;28;20899;-79
2021/05/06 11:49:30;;;;;;;9.87;3.60;;;10.90;98.30;;;;;;4168902;28;21038;-79
2021/05/06 11:51:41;;;;;;;5.70;2.97;;;11.30;98.30;;;;;;4173303;28;20495;-80
2021/05/06 11:53:43;;;;;;;5.97;2.80;;;11.80;98.30;;;;;;4170816;28;21036;-79
2021/05/06 11:55:45;;;;;;;10.40;3.00;;;12.60;98.30;;;;;;4174554;28;20500;-80
2021/05/06 11:57:48;;;;;;;6.47;3.03;;;13.20;98.30;;;;;;4171641;28;20905;-80
2021/05/06 11:59:50;;;;;;;3.60;2.70;;;13.80;98.30;;;;;;4170470;28;20503;-80
2021/05/06 12:01:53;;;;;;;3.57;2.67;;;14.40;92.20;;;;;;4173159;28;20944;-79
2021/05/06 12:03:56;;;;;;;7.00;3.27;;;14.20;92.30;;;;;;4172014;28;20493;-79
2021/05/06 12:06:00;;;;;;;6.33;3.57;;;13.90;90.40;;;;;;4171360;28;20499;-80
2021/05/06 12:08:03;;;;;;;5.27;3.07;;;13.90;92.40;;;;;;4178083;28;20968;-79
2021/05/06 12:10:08;;;;;;;8.13;4.00;;;13.20;89.40;;;;;;4177301;28;20497;-79
2021/05/06 12:12:11;;;;;;;5.37;2.90;;;12.10;92.60;;;;;;4173043;28;20849;-79
2021/05/06 12:14:14;;;;;;;8.47;3.63;;;11.00;93.30;;;;;;4172611;28;20485;-79
2021/05/06 12:16:21;;;;;;;5.13;2.47;;;10.80;98.00;;;;;;4170157;28;21397;-79
2021/05/06 12:18:25;;;;;;;5.83;2.80;;;11.00;95.70;;;;;;4173121;28;20530;-79
2021/05/06 12:20:26;;;;;;;6.93;3.10;;;11.10;96.00;;;;;;4174577;28;20484;-79
2021/05/06 12:22:28;;;;;;;5.73;2.80;;;11.20;92.50;;;;;;4175137;28;20496;-79
2021/05/06 12:24:37;;;;;;;6.33;2.73;;;12.00;90.00;;;;;;4172493;28;20488;-80
2021/05/06 12:26:42;;;;;;;3.30;2.40;;;12.40;88.10;;;;;;4172736;28;20492;-79
2021/05/06 12:28:46;;;;;;;3.40;2.53;;;12.80;87.30;;;;;;4172964;28;20488;-79
2021/05/06 12:30:48;;;;;;;4.23;2.40;;;13.50;87.40;;;;;;4172625;28;21316;-79
2021/05/06 12:32:49;;;;;;;4.27;2.80;;;13.90;83.40;;;;;;4168462;28;20492;-80
2021/05/06 12:34:54;;;;;;;5.83;3.30;;;13.50;83.70;;;;;;4178404;28;20549;-80
2021/05/06 12:36:59;;;;;;;9.30;3.17;;;13.30;84.50;;;;;;4174034;28;20575;-79
2021/05/06 12:39:04;;;;;;;6.63;3.90;;;12.70;86.60;;;;;;4171295;28;20851;-79
2021/05/06 12:41:07;;;;;;;4.83;3.43;;;12.40;87.80;;;;;;4173567;28;20491;-79
2021/05/06 12:43:29;;;;;;;7.23;2.93;;;13.10;88.00;;;;;;4176291;28;20479;-80
2021/05/06 12:45:31;;;;;;;7.60;2.63;;;14.30;86.10;;;;;;4175269;28;20488;-80
2021/05/06 12:47:43;;;;;;;3.33;2.30;;;15.10;84.90;;;;;;4172424;28;20554;-80
2021/05/06 12:49:46;;;;;;;4.53;2.53;;;15.30;81.50;;;;;;4171961;28;20980;-80
2021/05/06 12:51:49;;;;;;;4.80;3.07;;;15.20;80.90;;;;;;4174209;28;20511;-80
2021/05/06 12:54:02;;;;;;;7.53;3.10;;;14.70;80.80;;;;;;4175179;28;20579;-80
2021/05/06 12:56:05;;;;;;;5.10;3.00;;;14.20;82.20;;;;;;4172916;28;20498;-80
2021/05/06 12:58:08;;;;;;;5.47;2.77;;;13.70;83.10;;;;;;4172617;28;20493;-80
2021/05/06 13:00:21;;;;;;;4.87;3.07;;;12.90;84.40;;;;;;4174679;28;20520;-80
2021/05/06 13:02:23;;;;;;;4.93;2.63;;;12.50;86.90;;;;;;4172022;28;20604;-79
2021/05/06 13:04:26;;;;;;;3.87;2.30;;;12.20;87.70;;;;;;4174010;28;20497;-80
2021/05/06 13:06:36;;;;;;;5.07;3.00;;;11.40;86.50;;;;;;4173256;28;21129;-79
2021/05/06 13:08:40;;;;;;;4.60;2.50;;;10.30;87.60;;;;;;4171580;28;20504;-79
2021/05/06 13:10:43;;;;;;;2.73;2.43;;;9.70;91.20;;;;;;4173200;28;20484;-79